sensor_id;sensor_type;location;lat;lon;timestamp;pressure;altitude;pressure_sealevel;temperature
15607;BMP180;7865;50.918;4.510;2023-02-21T00:02:38;101652.00;;;7.30
15607;BMP180;7865;50.918;4.510;2023-02-21T00:07:59;101645.00;;;7.30
15607;BMP180;7865;50.918;4.510;2023-02-21T00:13:19;101633.00;;;7.30
15607;BMP180;7865;50.918;4.510;2023-02-21T00:18:40;101630.00;;;7.30
15607;BMP180;7865;50.918;4.510;2023-02-21T00:24:00;101639.00;;;7.30
15607;BMP180;7865;50.918;4.510;2023-02-21T00:29:21;101660.00;;;7.20
15607;BMP180;7865;50.918;4.510;2023-02-21T00:34:41;101655.00;;;7.20
15607;BMP180;7865;50.918;4.510;2023-02-21T00:40:02;101630.00;;;7.20
15607;BMP180;7865;50.918;4.510;2023-02-21T00:45:23;101646.00;;;7.10
15607;BMP180;7865;50.918;4.510;2023-02-21T00:50:43;101651.00;;;7.10
15607;BMP180;7865;50.918;4.510;2023-02-21T00:56:03;101661.00;;;7.10
15607;BMP180;7865;50.918;4.510;2023-02-21T01:01:24;101647.00;;;7.00
15607;BMP180;7865;50.918;4.510;2023-02-21T01:06:44;101633.00;;;7.00
15607;BMP180;7865;50.918;4.510;2023-02-21T01:12:05;101638.00;;;7.00
15607;BMP180;7865;50.918;4.510;2023-02-21T01:17:25;101629.00;;;6.90
15607;BMP180;7865;50.918;4.510;2023-02-21T01:22:46;101621.00;;;6.90
15607;BMP180;7865;50.918;4.510;2023-02-21T01:28:06;101618.00;;;6.90
15607;BMP180;7865;50.918;4.510;2023-02-21T01:33:28;101615.00;;;6.80
15607;BMP180;7865;50.918;4.510;2023-02-21T01:38:48;101631.00;;;6.80
15607;BMP180;7865;50.918;4.510;2023-02-21T01:49:49;101608.00;;;6.80
15607;BMP180;7865;50.918;4.510;2023-02-21T01:55:10;101621.00;;;6.80
15607;BMP180;7865;50.918;4.510;2023-02-21T02:00:31;101624.00;;;6.80
15607;BMP180;7865;50.918;4.510;2023-02-21T02:06:00;101612.00;;;6.80
15607;BMP180;7865;50.918;4.510;2023-02-21T02:11:45;101604.00;;;6.80
15607;BMP180;7865;50.918;4.510;2023-02-21T02:22:42;101602.00;;;6.70
15607;BMP180;7865;50.918;4.510;2023-02-21T02:28:04;101599.00;;;6.70
15607;BMP180;7865;50.918;4.510;2023-02-21T02:38:35;101595.00;;;6.70
15607;BMP180;7865;50.918;4.510;2023-02-21T02:54:31;101586.00;;;6.60
15607;BMP180;7865;50.918;4.510;2023-02-21T02:59:33;101579.00;;;6.50
15607;BMP180;7865;50.918;4.510;2023-02-21T03:15:51;101555.00;;;6.60
15607;BMP180;7865;50.918;4.510;2023-02-21T03:20:56;101554.00;;;6.70
15607;BMP180;7865;50.918;4.510;2023-02-21T03:26:03;101549.00;;;6.70
15607;BMP180;7865;50.918;4.510;2023-02-21T03:31:08;101552.00;;;6.70
15607;BMP180;7865;50.918;4.510;2023-02-21T03:36:11;101542.00;;;6.70
15607;BMP180;7865;50.918;4.510;2023-02-21T03:41:15;101544.00;;;6.70
15607;BMP180;7865;50.918;4.510;2023-02-21T03:46:17;101536.00;;;6.70
15607;BMP180;7865;50.918;4.510;2023-02-21T03:51:20;101544.00;;;6.70
15607;BMP180;7865;50.918;4.510;2023-02-21T03:56:22;101533.00;;;6.70
15607;BMP180;7865;50.918;4.510;2023-02-21T04:01:48;101539.00;;;6.70
15607;BMP180;7865;50.918;4.510;2023-02-21T04:06:51;101533.00;;;6.70
15607;BMP180;7865;50.918;4.510;2023-02-21T04:11:53;101532.00;;;6.70
15607;BMP180;7865;50.918;4.510;2023-02-21T04:16:56;101533.00;;;6.70
15607;BMP180;7865;50.918;4.510;2023-02-21T04:21:58;101528.00;;;6.70
15607;BMP180;7865;50.918;4.510;2023-02-21T04:26:59;101537.00;;;6.60
15607;BMP180;7865;50.918;4.510;2023-02-21T04:32:06;101535.00;;;6.60
15607;BMP180;7865;50.918;4.510;2023-02-21T04:37:09;101535.00;;;6.60
15607;BMP180;7865;50.918;4.510;2023-02-21T04:42:11;101528.00;;;6.60
15607;BMP180;7865;50.918;4.510;2023-02-21T04:47:13;101526.00;;;6.60
15607;BMP180;7865;50.918;4.510;2023-02-21T04:52:15;101529.00;;;6.60
15607;BMP180;7865;50.918;4.510;2023-02-21T04:57:17;101521.00;;;6.50
15607;BMP180;7865;50.918;4.510;2023-02-21T05:02:19;101521.00;;;6.60
15607;BMP180;7865;50.918;4.510;2023-02-21T05:07:21;101525.00;;;6.60
15607;BMP180;7865;50.918;4.510;2023-02-21T05:12:22;101529.00;;;6.60
15607;BMP180;7865;50.918;4.510;2023-02-21T05:17:24;101523.00;;;6.60
15607;BMP180;7865;50.918;4.510;2023-02-21T05:22:28;101522.00;;;6.60
15607;BMP180;7865;50.918;4.510;2023-02-21T05:27:30;101523.00;;;6.60
15607;BMP180;7865;50.918;4.510;2023-02-21T05:32:32;101518.00;;;6.60
15607;BMP180;7865;50.918;4.510;2023-02-21T05:37:34;101516.00;;;6.60
15607;BMP180;7865;50.918;4.510;2023-02-21T05:42:36;101509.00;;;6.60
15607;BMP180;7865;50.918;4.510;2023-02-21T05:47:38;101507.00;;;6.60
15607;BMP180;7865;50.918;4.510;2023-02-21T05:52:40;101517.00;;;6.50
15607;BMP180;7865;50.918;4.510;2023-02-21T05:57:42;101505.00;;;6.50
15607;BMP180;7865;50.918;4.510;2023-02-21T06:02:43;101506.00;;;6.50
15607;BMP180;7865;50.918;4.510;2023-02-21T06:07:46;101513.00;;;6.50
15607;BMP180;7865;50.918;4.510;2023-02-21T06:12:48;101504.00;;;6.50
15607;BMP180;7865;50.918;4.510;2023-02-21T06:17:50;101498.00;;;6.50
15607;BMP180;7865;50.918;4.510;2023-02-21T06:22:51;101492.00;;;6.40
15607;BMP180;7865;50.918;4.510;2023-02-21T06:27:53;101486.00;;;6.40
15607;BMP180;7865;50.918;4.510;2023-02-21T06:32:55;101479.00;;;6.40
15607;BMP180;7865;50.918;4.510;2023-02-21T06:37:57;101491.00;;;6.40
15607;BMP180;7865;50.918;4.510;2023-02-21T06:42:59;101494.00;;;6.40
15607;BMP180;7865;50.918;4.510;2023-02-21T06:48:01;101499.00;;;6.40
15607;BMP180;7865;50.918;4.510;2023-02-21T06:53:03;101499.00;;;6.50
15607;BMP180;7865;50.918;4.510;2023-02-21T06:58:05;101498.00;;;6.50
15607;BMP180;7865;50.918;4.510;2023-02-21T07:03:07;101499.00;;;6.50
15607;BMP180;7865;50.918;4.510;2023-02-21T07:08:09;101499.00;;;6.50
15607;BMP180;7865;50.918;4.510;2023-02-21T07:13:11;101499.00;;;6.50
15607;BMP180;7865;50.918;4.510;2023-02-21T07:18:13;101502.00;;;6.50
15607;BMP180;7865;50.918;4.510;2023-02-21T07:23:15;101498.00;;;6.50
15607;BMP180;7865;50.918;4.510;2023-02-21T07:28:17;101500.00;;;6.50
15607;BMP180;7865;50.918;4.510;2023-02-21T07:33:19;101511.00;;;6.60
15607;BMP180;7865;50.918;4.510;2023-02-21T07:38:26;101508.00;;;6.60
15607;BMP180;7865;50.918;4.510;2023-02-21T07:43:29;101511.00;;;6.60
15607;BMP180;7865;50.918;4.510;2023-02-21T07:48:32;101510.00;;;6.60
15607;BMP180;7865;50.918;4.510;2023-02-21T07:53:35;101504.00;;;6.60
15607;BMP180;7865;50.918;4.510;2023-02-21T07:58:37;101510.00;;;6.70
15607;BMP180;7865;50.918;4.510;2023-02-21T08:03:39;101519.00;;;6.80
15607;BMP180;7865;50.918;4.510;2023-02-21T08:08:41;101515.00;;;6.80
15607;BMP180;7865;50.918;4.510;2023-02-21T08:13:43;101518.00;;;6.80
15607;BMP180;7865;50.918;4.510;2023-02-21T08:18:49;101511.00;;;6.90
15607;BMP180;7865;50.918;4.510;2023-02-21T08:23:52;101508.00;;;6.90
15607;BMP180;7865;50.918;4.510;2023-02-21T08:28:55;101506.00;;;6.90
15607;BMP180;7865;50.918;4.510;2023-02-21T08:33:57;101505.00;;;7.00
15607;BMP180;7865;50.918;4.510;2023-02-21T08:38:58;101506.00;;;7.10
15607;BMP180;7865;50.918;4.510;2023-02-21T08:44:00;101510.00;;;7.20
15607;BMP180;7865;50.918;4.510;2023-02-21T08:49:03;101498.00;;;7.20
15607;BMP180;7865;50.918;4.510;2023-02-21T08:54:06;101502.00;;;7.20
15607;BMP180;7865;50.918;4.510;2023-02-21T08:59:08;101504.00;;;7.20
15607;BMP180;7865;50.918;4.510;2023-02-21T09:04:10;101507.00;;;7.40
15607;BMP180;7865;50.918;4.510;2023-02-21T09:09:12;101504.00;;;7.50
15607;BMP180;7865;50.918;4.510;2023-02-21T09:14:15;101495.00;;;7.50
15607;BMP180;7865;50.918;4.510;2023-02-21T09:19:17;101494.00;;;7.60
15607;BMP180;7865;50.918;4.510;2023-02-21T09:24:19;101492.00;;;7.60
15607;BMP180;7865;50.918;4.510;2023-02-21T09:29:25;101487.00;;;7.70
15607;BMP180;7865;50.918;4.510;2023-02-21T09:34:37;101494.00;;;7.80
15607;BMP180;7865;50.918;4.510;2023-02-21T09:39:40;101480.00;;;7.90
15607;BMP180;7865;50.918;4.510;2023-02-21T09:44:42;101471.00;;;8.00
15607;BMP180;7865;50.918;4.510;2023-02-21T09:49:46;101478.00;;;7.90
15607;BMP180;7865;50.918;4.510;2023-02-21T09:54:56;101479.00;;;7.80
15607;BMP180;7865;50.918;4.510;2023-02-21T09:59:58;101479.00;;;7.90
15607;BMP180;7865;50.918;4.510;2023-02-21T10:05:46;101475.00;;;7.80
15607;BMP180;7865;50.918;4.510;2023-02-21T10:10:55;101476.00;;;7.70
15607;BMP180;7865;50.918;4.510;2023-02-21T10:16:13;101478.00;;;7.70
15607;BMP180;7865;50.918;4.510;2023-02-21T10:21:28;101485.00;;;7.70
15607;BMP180;7865;50.918;4.510;2023-02-21T10:26:36;101479.00;;;7.80
15607;BMP180;7865;50.918;4.510;2023-02-21T10:31:42;101474.00;;;7.80
15607;BMP180;7865;50.918;4.510;2023-02-21T10:36:47;101476.00;;;7.80
15607;BMP180;7865;50.918;4.510;2023-02-21T10:41:50;101463.00;;;7.90
15607;BMP180;7865;50.918;4.510;2023-02-21T10:52:17;101468.00;;;7.90
15607;BMP180;7865;50.918;4.510;2023-02-21T10:57:22;101471.00;;;8.00
15607;BMP180;7865;50.918;4.510;2023-02-21T11:02:34;101469.00;;;8.10
15607;BMP180;7865;50.918;4.510;2023-02-21T11:07:38;101464.00;;;8.20
15607;BMP180;7865;50.918;4.510;2023-02-21T11:12:40;101463.00;;;8.20
15607;BMP180;7865;50.918;4.510;2023-02-21T11:17:42;101455.00;;;8.20
15607;BMP180;7865;50.918;4.510;2023-02-21T11:22:47;101444.00;;;8.40
15607;BMP180;7865;50.918;4.510;2023-02-21T11:28:03;101432.00;;;8.60
15607;BMP180;7865;50.918;4.510;2023-02-21T11:33:07;101428.00;;;8.70
15607;BMP180;7865;50.918;4.510;2023-02-21T11:38:33;101420.00;;;9.10
15607;BMP180;7865;50.918;4.510;2023-02-21T11:43:47;101419.00;;;9.10
15607;BMP180;7865;50.918;4.510;2023-02-21T11:49:01;101416.00;;;9.10
15607;BMP180;7865;50.918;4.510;2023-02-21T11:54:05;101413.00;;;9.40
15607;BMP180;7865;50.918;4.510;2023-02-21T12:05:44;101410.00;;;9.60
15607;BMP180;7865;50.918;4.510;2023-02-21T12:10:43;101404.00;;;9.40
15607;BMP180;7865;50.918;4.510;2023-02-21T12:21:31;101405.00;;;9.30
15607;BMP180;7865;50.918;4.510;2023-02-21T12:42:41;101376.00;;;9.50
15607;BMP180;7865;50.918;4.510;2023-02-21T12:47:57;101371.00;;;9.60
15607;BMP180;7865;50.918;4.510;2023-02-21T12:53:06;101359.00;;;9.90
15607;BMP180;7865;50.918;4.510;2023-02-21T12:58:17;101344.00;;;10.30
15607;BMP180;7865;50.918;4.510;2023-02-21T13:08:52;101342.00;;;10.40
15607;BMP180;7865;50.918;4.510;2023-02-21T13:13:58;101335.00;;;10.40
15607;BMP180;7865;50.918;4.510;2023-02-21T13:19:05;101336.00;;;10.50
15607;BMP180;7865;50.918;4.510;2023-02-21T13:24:46;101331.00;;;10.60
15607;BMP180;7865;50.918;4.510;2023-02-21T13:29:49;101323.00;;;10.80
15607;BMP180;7865;50.918;4.510;2023-02-21T13:34:59;101318.00;;;10.80
15607;BMP180;7865;50.918;4.510;2023-02-21T13:40:15;101313.00;;;10.90
15607;BMP180;7865;50.918;4.510;2023-02-21T13:45:24;101305.00;;;10.80
15607;BMP180;7865;50.918;4.510;2023-02-21T13:55:38;101299.00;;;11.00
15607;BMP180;7865;50.918;4.510;2023-02-21T14:10:53;101279.00;;;11.10
15607;BMP180;7865;50.918;4.510;2023-02-21T14:21:15;101287.00;;;10.90
15607;BMP180;7865;50.918;4.510;2023-02-21T14:36:56;101272.00;;;10.60
15607;BMP180;7865;50.918;4.510;2023-02-21T14:42:28;101260.00;;;10.60
15607;BMP180;7865;50.918;4.510;2023-02-21T14:48:03;101259.00;;;10.70
15607;BMP180;7865;50.918;4.510;2023-02-21T14:59:16;101254.00;;;10.70
15607;BMP180;7865;50.918;4.510;2023-02-21T15:09:30;101246.00;;;10.00
15607;BMP180;7865;50.918;4.510;2023-02-21T15:14:38;101246.00;;;10.00
15607;BMP180;7865;50.918;4.510;2023-02-21T15:19:42;101248.00;;;9.90
15607;BMP180;7865;50.918;4.510;2023-02-21T15:30:25;101245.00;;;9.90
15607;BMP180;7865;50.918;4.510;2023-02-21T15:35:35;101241.00;;;9.80
15607;BMP180;7865;50.918;4.510;2023-02-21T15:40:37;101228.00;;;9.70
15607;BMP180;7865;50.918;4.510;2023-02-21T15:45:45;101234.00;;;9.60
15607;BMP180;7865;50.918;4.510;2023-02-21T15:50:52;101236.00;;;9.70
15607;BMP180;7865;50.918;4.510;2023-02-21T15:56:14;101214.00;;;9.40
15607;BMP180;7865;50.918;4.510;2023-02-21T16:01:19;101222.00;;;9.30
15607;BMP180;7865;50.918;4.510;2023-02-21T16:06:24;101226.00;;;9.20
15607;BMP180;7865;50.918;4.510;2023-02-21T16:11:55;101221.00;;;9.00
15607;BMP180;7865;50.918;4.510;2023-02-21T16:17:19;101221.00;;;8.90
15607;BMP180;7865;50.918;4.510;2023-02-21T16:22:37;101210.00;;;8.90
15607;BMP180;7865;50.918;4.510;2023-02-21T16:27:59;101214.00;;;8.80
15607;BMP180;7865;50.918;4.510;2023-02-21T16:33:04;101200.00;;;8.70
15607;BMP180;7865;50.918;4.510;2023-02-21T16:38:09;101211.00;;;8.70
15607;BMP180;7865;50.918;4.510;2023-02-21T16:43:29;101209.00;;;8.60
15607;BMP180;7865;50.918;4.510;2023-02-21T16:48:32;101201.00;;;8.40
15607;BMP180;7865;50.918;4.510;2023-02-21T16:53:34;101200.00;;;8.40
15607;BMP180;7865;50.918;4.510;2023-02-21T16:58:39;101192.00;;;8.30
15607;BMP180;7865;50.918;4.510;2023-02-21T17:03:43;101198.00;;;8.30
15607;BMP180;7865;50.918;4.510;2023-02-21T17:08:45;101194.00;;;8.20
15607;BMP180;7865;50.918;4.510;2023-02-21T17:13:47;101197.00;;;8.20
15607;BMP180;7865;50.918;4.510;2023-02-21T17:18:49;101201.00;;;8.00
15607;BMP180;7865;50.918;4.510;2023-02-21T17:23:50;101196.00;;;7.80
15607;BMP180;7865;50.918;4.510;2023-02-21T17:28:52;101192.00;;;7.60
15607;BMP180;7865;50.918;4.510;2023-02-21T17:33:54;101190.00;;;7.30
15607;BMP180;7865;50.918;4.510;2023-02-21T17:38:56;101192.00;;;7.00
15607;BMP180;7865;50.918;4.510;2023-02-21T17:43:59;101190.00;;;6.80
15607;BMP180;7865;50.918;4.510;2023-02-21T17:49:01;101177.00;;;6.60
15607;BMP180;7865;50.918;4.510;2023-02-21T17:54:03;101175.00;;;6.30
15607;BMP180;7865;50.918;4.510;2023-02-21T17:59:05;101177.00;;;6.10
15607;BMP180;7865;50.918;4.510;2023-02-21T18:04:08;101175.00;;;5.90
15607;BMP180;7865;50.918;4.510;2023-02-21T18:09:10;101176.00;;;5.80
15607;BMP180;7865;50.918;4.510;2023-02-21T18:14:12;101167.00;;;5.80
15607;BMP180;7865;50.918;4.510;2023-02-21T18:19:14;101167.00;;;5.80
15607;BMP180;7865;50.918;4.510;2023-02-21T18:24:16;101161.00;;;5.70
15607;BMP180;7865;50.918;4.510;2023-02-21T18:29:19;101147.00;;;5.60
15607;BMP180;7865;50.918;4.510;2023-02-21T18:34:21;101152.00;;;5.40
15607;BMP180;7865;50.918;4.510;2023-02-21T18:39:23;101149.00;;;5.30
15607;BMP180;7865;50.918;4.510;2023-02-21T18:44:26;101141.00;;;5.30
15607;BMP180;7865;50.918;4.510;2023-02-21T18:49:28;101138.00;;;5.20
15607;BMP180;7865;50.918;4.510;2023-02-21T18:54:34;101146.00;;;5.20
15607;BMP180;7865;50.918;4.510;2023-02-21T18:59:37;101145.00;;;5.10
15607;BMP180;7865;50.918;4.510;2023-02-21T19:04:40;101139.00;;;5.10
15607;BMP180;7865;50.918;4.510;2023-02-21T19:09:45;101128.00;;;5.10
15607;BMP180;7865;50.918;4.510;2023-02-21T19:14:46;101128.00;;;5.10
15607;BMP180;7865;50.918;4.510;2023-02-21T19:19:48;101124.00;;;5.00
15607;BMP180;7865;50.918;4.510;2023-02-21T19:24:50;101120.00;;;4.90
15607;BMP180;7865;50.918;4.510;2023-02-21T19:29:52;101108.00;;;4.80
15607;BMP180;7865;50.918;4.510;2023-02-21T19:34:54;101113.00;;;4.70
15607;BMP180;7865;50.918;4.510;2023-02-21T19:39:56;101107.00;;;4.60
15607;BMP180;7865;50.918;4.510;2023-02-21T19:44:58;101102.00;;;4.50
15607;BMP180;7865;50.918;4.510;2023-02-21T19:50:00;101100.00;;;4.40
15607;BMP180;7865;50.918;4.510;2023-02-21T19:55:02;101100.00;;;4.20
15607;BMP180;7865;50.918;4.510;2023-02-21T20:00:05;101095.00;;;3.90
15607;BMP180;7865;50.918;4.510;2023-02-21T20:05:12;101087.00;;;3.60
15607;BMP180;7865;50.918;4.510;2023-02-21T20:10:15;101086.00;;;3.40
15607;BMP180;7865;50.918;4.510;2023-02-21T20:15:19;101090.00;;;3.30
15607;BMP180;7865;50.918;4.510;2023-02-21T20:20:22;101078.00;;;3.30
15607;BMP180;7865;50.918;4.510;2023-02-21T20:25:23;101068.00;;;3.60
15607;BMP180;7865;50.918;4.510;2023-02-21T20:30:25;101074.00;;;3.70
15607;BMP180;7865;50.918;4.510;2023-02-21T20:35:28;101064.00;;;3.80
15607;BMP180;7865;50.918;4.510;2023-02-21T20:40:33;101060.00;;;3.60
15607;BMP180;7865;50.918;4.510;2023-02-21T20:45:35;101061.00;;;3.40
15607;BMP180;7865;50.918;4.510;2023-02-21T20:50:39;101055.00;;;3.10
15607;BMP180;7865;50.918;4.510;2023-02-21T20:55:42;101044.00;;;2.90
15607;BMP180;7865;50.918;4.510;2023-02-21T21:00:44;101034.00;;;2.80
15607;BMP180;7865;50.918;4.510;2023-02-21T21:05:46;101034.00;;;2.80
15607;BMP180;7865;50.918;4.510;2023-02-21T21:10:51;101031.00;;;2.70
15607;BMP180;7865;50.918;4.510;2023-02-21T21:15:53;101024.00;;;2.60
15607;BMP180;7865;50.918;4.510;2023-02-21T21:20:55;101019.00;;;2.60
15607;BMP180;7865;50.918;4.510;2023-02-21T21:25:57;101007.00;;;2.80
15607;BMP180;7865;50.918;4.510;2023-02-21T21:31:03;101006.00;;;3.10
15607;BMP180;7865;50.918;4.510;2023-02-21T21:36:08;101003.00;;;3.20
15607;BMP180;7865;50.918;4.510;2023-02-21T21:41:11;100998.00;;;3.40
15607;BMP180;7865;50.918;4.510;2023-02-21T21:46:14;100983.00;;;3.60
15607;BMP180;7865;50.918;4.510;2023-02-21T21:51:18;100980.00;;;3.80
15607;BMP180;7865;50.918;4.510;2023-02-21T21:56:23;100976.00;;;4.00
15607;BMP180;7865;50.918;4.510;2023-02-21T22:01:27;100960.00;;;4.10
15607;BMP180;7865;50.918;4.510;2023-02-21T22:06:30;100962.00;;;4.30
15607;BMP180;7865;50.918;4.510;2023-02-21T22:11:33;100962.00;;;4.40
15607;BMP180;7865;50.918;4.510;2023-02-21T22:16:37;100968.00;;;4.50
15607;BMP180;7865;50.918;4.510;2023-02-21T22:21:39;100966.00;;;4.50
15607;BMP180;7865;50.918;4.510;2023-02-21T22:26:43;100973.00;;;4.50
15607;BMP180;7865;50.918;4.510;2023-02-21T22:31:47;100973.00;;;4.60
15607;BMP180;7865;50.918;4.510;2023-02-21T22:36:50;100968.00;;;4.60
15607;BMP180;7865;50.918;4.510;2023-02-21T22:41:53;100972.00;;;4.70
15607;BMP180;7865;50.918;4.510;2023-02-21T22:46:55;100962.00;;;4.70
15607;BMP180;7865;50.918;4.510;2023-02-21T22:51:59;100953.00;;;4.70
15607;BMP180;7865;50.918;4.510;2023-02-21T22:57:02;100942.00;;;4.80
15607;BMP180;7865;50.918;4.510;2023-02-21T23:02:05;100946.00;;;4.80
15607;BMP180;7865;50.918;4.510;2023-02-21T23:07:06;100941.00;;;4.80
15607;BMP180;7865;50.918;4.510;2023-02-21T23:12:09;100946.00;;;4.90
15607;BMP180;7865;50.918;4.510;2023-02-21T23:17:12;100935.00;;;4.90
15607;BMP180;7865;50.918;4.510;2023-02-21T23:22:14;100942.00;;;4.90
15607;BMP180;7865;50.918;4.510;2023-02-21T23:27:16;100939.00;;;4.90
15607;BMP180;7865;50.918;4.510;2023-02-21T23:32:18;100940.00;;;4.90
15607;BMP180;7865;50.918;4.510;2023-02-21T23:37:20;100938.00;;;4.90
15607;BMP180;7865;50.918;4.510;2023-02-21T23:42:23;100940.00;;;4.90
15607;BMP180;7865;50.918;4.510;2023-02-21T23:47:25;100938.00;;;4.90
15607;BMP180;7865;50.918;4.510;2023-02-21T23:52:26;100944.00;;;5.00
15607;BMP180;7865;50.918;4.510;2023-02-21T23:57:29;100946.00;;;5.00
